createdAt,value
2023-03-01T00:01:10.282Z,11.70
2023-03-01T00:03:37.547Z,12.50
2023-03-01T00:06:05.488Z,11.98
2023-03-01T00:08:33.997Z,12.40
2023-03-01T00:11:14.917Z,12.40
2023-03-01T00:13:43.021Z,12.05
2023-03-01T00:16:14.229Z,11.75
2023-03-01T00:18:41.967Z,12.35
2023-03-01T00:21:09.049Z,12.13
2023-03-01T00:23:36.839Z,13.20
2023-03-01T00:26:07.575Z,11.70
2023-03-01T00:28:34.782Z,13.57
2023-03-01T00:31:07.073Z,12.60
2023-03-01T00:33:34.545Z,14.40
2023-03-01T00:36:02.455Z,11.82
2023-03-01T00:38:29.639Z,12.13
2023-03-01T00:40:56.707Z,11.95
2023-03-01T00:43:23.748Z,13.00
2023-03-01T00:45:50.853Z,13.50
2023-03-01T00:48:17.959Z,13.02
2023-03-01T00:50:44.985Z,14.43
2023-03-01T00:53:11.958Z,12.05
2023-03-01T00:55:39.034Z,14.13
2023-03-01T00:58:06.047Z,13.73
2023-03-01T01:00:33.044Z,12.93
2023-03-01T01:03:00.062Z,14.73
2023-03-01T01:05:27.137Z,13.30
2023-03-01T01:07:54.120Z,11.48
2023-03-01T01:10:22.279Z,14.02
2023-03-01T01:12:49.335Z,13.40
2023-03-01T01:15:17.662Z,15.18
2023-03-01T01:17:44.893Z,13.75
2023-03-01T01:20:12.585Z,14.00
2023-03-01T01:22:39.625Z,12.70
2023-03-01T01:25:06.977Z,14.43
2023-03-01T01:27:34.023Z,14.35
2023-03-01T01:30:01.041Z,13.25
2023-03-01T01:32:28.063Z,14.40
2023-03-01T01:34:55.144Z,13.45
2023-03-01T01:37:22.464Z,14.90
2023-03-01T01:39:49.507Z,13.75
2023-03-01T01:42:20.138Z,13.70
2023-03-01T01:44:48.409Z,14.38
2023-03-01T01:47:23.278Z,14.35
2023-03-01T01:49:57.307Z,13.40
2023-03-01T01:52:36.957Z,14.18
2023-03-01T01:55:09.441Z,15.80
2023-03-01T01:57:49.825Z,13.50
2023-03-01T02:00:20.360Z,13.98
2023-03-01T02:02:53.171Z,14.70
2023-03-01T02:05:44.421Z,14.27
2023-03-01T02:08:14.073Z,13.73
2023-03-01T02:10:42.257Z,13.75
2023-03-01T02:13:10.236Z,12.70
2023-03-01T02:15:39.396Z,13.27
2023-03-01T02:18:08.009Z,13.82
2023-03-01T02:20:58.452Z,14.52
2023-03-01T02:23:26.706Z,14.38
2023-03-01T02:26:16.396Z,13.20
2023-03-01T02:28:46.206Z,14.45
2023-03-01T02:31:36.466Z,14.25
2023-03-01T02:34:05.720Z,14.73
2023-03-01T02:36:37.836Z,14.30
2023-03-01T02:39:07.709Z,15.57
2023-03-01T02:41:39.737Z,13.43
2023-03-01T02:44:07.150Z,13.15
2023-03-01T02:46:34.393Z,13.93
2023-03-01T02:49:01.567Z,14.27
2023-03-01T02:51:46.839Z,13.48
2023-03-01T02:54:37.918Z,13.88
2023-03-01T02:57:05.117Z,11.30
2023-03-01T02:59:40.514Z,14.02
2023-03-01T03:02:09.009Z,13.55
2023-03-01T03:04:36.106Z,11.43
2023-03-01T03:07:03.228Z,12.07
2023-03-01T03:09:30.265Z,12.93
2023-03-01T03:11:57.232Z,15.55
2023-03-01T03:14:24.695Z,13.63
2023-03-01T03:16:52.100Z,15.40
2023-03-01T03:19:20.863Z,17.30
2023-03-01T03:21:48.299Z,16.40
2023-03-01T03:24:15.343Z,16.67
2023-03-01T03:26:42.385Z,16.35
2023-03-01T03:29:09.374Z,15.63
2023-03-01T03:31:36.393Z,19.17
2023-03-01T03:34:03.508Z,18.10
2023-03-01T03:36:30.662Z,17.13
2023-03-01T03:38:57.880Z,14.85
2023-03-01T03:41:24.951Z,15.77
2023-03-01T03:43:52.061Z,16.73
2023-03-01T03:46:19.066Z,15.90
2023-03-01T03:48:47.148Z,14.63
2023-03-01T03:51:16.245Z,14.80
2023-03-01T03:53:44.196Z,15.48
2023-03-01T03:56:11.749Z,15.95
2023-03-01T03:58:39.224Z,16.95
2023-03-01T04:01:06.948Z,17.05
2023-03-01T04:03:36.199Z,16.65
2023-03-01T04:06:04.101Z,16.63
2023-03-01T04:08:31.128Z,15.05
2023-03-01T04:11:01.658Z,14.90
2023-03-01T04:13:28.779Z,15.40
2023-03-01T04:15:56.273Z,16.20
2023-03-01T04:18:26.180Z,17.92
2023-03-01T04:20:56.532Z,14.80
2023-03-01T04:23:24.053Z,15.20
2023-03-01T04:25:56.882Z,15.02
2023-03-01T04:28:36.047Z,14.43
2023-03-01T04:31:19.391Z,15.05
2023-03-01T04:33:49.677Z,15.18
2023-03-01T04:36:18.720Z,15.52
2023-03-01T04:38:49.416Z,16.77
2023-03-01T04:41:18.731Z,14.43
2023-03-01T04:43:46.432Z,14.25
2023-03-01T04:46:16.325Z,14.95
2023-03-01T04:48:45.470Z,15.40
2023-03-01T04:51:14.841Z,15.57
2023-03-01T04:53:42.338Z,16.30
2023-03-01T04:56:10.049Z,16.63
2023-03-01T04:58:37.091Z,17.27
2023-03-01T05:01:16.383Z,14.75
2023-03-01T05:03:48.529Z,16.42
2023-03-01T05:06:16.336Z,15.73
2023-03-01T05:08:44.124Z,15.77
2023-03-01T05:11:11.619Z,16.77
2023-03-01T05:13:40.307Z,16.65
2023-03-01T05:16:12.548Z,16.77
2023-03-01T05:18:41.416Z,16.80
2023-03-01T05:21:14.271Z,15.95
2023-03-01T05:23:41.846Z,17.02
2023-03-01T05:26:25.857Z,18.45
2023-03-01T05:28:53.164Z,17.63
2023-03-01T05:31:20.237Z,17.23
2023-03-01T05:33:47.304Z,17.08
2023-03-01T05:36:14.303Z,16.70
2023-03-01T05:38:41.316Z,15.40
2023-03-01T05:41:16.178Z,15.93
2023-03-01T05:43:44.728Z,16.13
2023-03-01T05:46:13.779Z,17.48
2023-03-01T05:48:40.791Z,16.35
2023-03-01T05:51:07.862Z,16.67
2023-03-01T05:53:34.917Z,16.55
2023-03-01T05:56:05.106Z,16.27
2023-03-01T05:58:32.133Z,15.93
2023-03-01T06:00:59.208Z,16.65
2023-03-01T06:03:26.740Z,15.35
2023-03-01T06:05:58.075Z,17.17
2023-03-01T06:08:28.016Z,16.92
2023-03-01T06:10:55.219Z,16.55
2023-03-01T06:13:22.369Z,16.35
2023-03-01T06:15:49.436Z,15.90
2023-03-01T06:18:16.596Z,15.70
2023-03-01T06:20:43.665Z,16.30
2023-03-01T06:23:10.788Z,14.23
2023-03-01T06:25:38.627Z,15.98
2023-03-01T06:28:05.713Z,16.77
2023-03-01T06:30:33.161Z,14.90
2023-03-01T06:33:04.187Z,16.50
2023-03-01T06:35:31.966Z,15.30
2023-03-01T06:38:01.246Z,17.25
2023-03-01T06:40:29.162Z,15.57
2023-03-01T06:42:56.239Z,15.77
2023-03-01T06:45:23.279Z,15.93
2023-03-01T06:47:50.640Z,15.23
2023-03-01T06:50:19.050Z,14.80
2023-03-01T06:55:14.856Z,16.38
2023-03-01T06:57:41.907Z,14.48
2023-03-01T07:00:09.943Z,16.55
2023-03-01T07:02:36.960Z,16.05
2023-03-01T07:05:04.243Z,16.35
2023-03-01T07:07:31.394Z,18.13
2023-03-01T07:09:58.471Z,16.88
2023-03-01T07:12:25.478Z,17.10
2023-03-01T07:14:52.536Z,16.33
2023-03-01T07:17:20.007Z,16.88
2023-03-01T07:19:47.051Z,18.00
2023-03-01T07:22:14.084Z,16.80
2023-03-01T07:24:42.788Z,15.85
2023-03-01T07:27:09.856Z,16.83
2023-03-01T07:29:39.730Z,14.95
2023-03-01T07:32:07.301Z,17.42
2023-03-01T07:34:34.476Z,16.27
2023-03-01T07:37:01.489Z,17.35
2023-03-01T07:39:28.613Z,17.27
2023-03-01T07:41:55.620Z,16.13
2023-03-01T07:44:22.770Z,17.10
2023-03-01T07:46:49.884Z,17.73
2023-03-01T07:49:16.880Z,17.50
2023-03-01T07:51:44.823Z,16.60
2023-03-01T07:54:11.988Z,16.73
2023-03-01T07:56:39.024Z,16.45
2023-03-01T07:59:06.048Z,16.42
2023-03-01T08:01:33.101Z,17.60
2023-03-01T08:04:00.172Z,16.70
2023-03-01T08:06:27.381Z,15.23
2023-03-01T08:08:57.716Z,17.30
2023-03-01T08:11:24.882Z,17.08
2023-03-01T08:13:53.920Z,17.42
2023-03-01T08:16:21.826Z,16.40
2023-03-01T08:18:48.941Z,17.98
2023-03-01T08:21:18.288Z,18.35
2023-03-01T08:23:45.386Z,18.83
2023-03-01T08:26:21.075Z,17.00
2023-03-01T08:28:50.045Z,16.75
2023-03-01T08:31:25.859Z,16.42
2023-03-01T08:33:58.404Z,16.10
2023-03-01T08:36:31.537Z,16.95
2023-03-01T08:38:59.397Z,18.08
2023-03-01T08:41:27.106Z,16.67
2023-03-01T08:43:59.733Z,16.42
2023-03-01T08:46:37.061Z,16.23
2023-03-01T08:49:22.315Z,16.02
2023-03-01T08:51:49.899Z,17.48
2023-03-01T08:54:20.192Z,16.42
2023-03-01T08:56:47.792Z,17.45
2023-03-01T08:59:16.524Z,17.83
2023-03-01T09:01:46.333Z,17.98
2023-03-01T09:04:15.456Z,16.55
2023-03-01T09:06:43.175Z,17.08
2023-03-01T09:09:17.095Z,15.40
2023-03-01T09:11:47.278Z,16.77
2023-03-01T09:14:15.320Z,17.65
2023-03-01T09:16:42.522Z,17.42
2023-03-01T09:19:09.616Z,17.75
2023-03-01T09:21:40.654Z,17.67
2023-03-01T09:24:16.184Z,18.77
2023-03-01T09:26:44.134Z,18.40
2023-03-01T09:29:11.427Z,18.02
2023-03-01T09:31:38.590Z,19.27
2023-03-01T09:34:06.601Z,17.92
2023-03-01T09:36:34.587Z,17.10
2023-03-01T09:39:02.614Z,18.77
2023-03-01T09:41:41.425Z,17.67
2023-03-01T09:44:47.233Z,15.55
2023-03-01T09:47:21.301Z,17.48
2023-03-01T09:50:13.245Z,17.13
2023-03-01T09:52:42.831Z,17.42
2023-03-01T09:55:14.449Z,18.02
2023-03-01T09:58:07.868Z,16.83
2023-03-01T10:00:48.585Z,15.95
2023-03-01T10:03:32.178Z,16.35
2023-03-01T10:06:13.538Z,16.80
2023-03-01T10:08:58.946Z,16.73
2023-03-01T10:11:29.547Z,16.30
2023-03-01T10:14:06.366Z,16.15
2023-03-01T10:16:44.301Z,16.20
2023-03-01T10:19:21.654Z,15.98
2023-03-01T10:21:51.944Z,15.70
2023-03-01T10:24:22.634Z,16.70
2023-03-01T10:26:56.247Z,15.23
2023-03-01T10:29:50.003Z,14.65
2023-03-01T10:32:18.450Z,15.55
2023-03-01T10:34:45.523Z,14.88
2023-03-01T10:37:15.129Z,15.48
2023-03-01T10:39:58.760Z,14.05
2023-03-01T10:42:37.167Z,14.32
2023-03-01T10:45:34.399Z,14.73
2023-03-01T10:48:07.135Z,15.18
2023-03-01T10:50:34.441Z,13.80
2023-03-01T10:53:05.686Z,15.13
2023-03-01T10:55:35.892Z,14.45
2023-03-01T10:58:23.428Z,13.57
2023-03-01T11:00:59.072Z,15.13
2023-03-01T11:03:35.660Z,14.85
2023-03-01T11:06:06.758Z,14.65
2023-03-01T11:08:38.252Z,15.20
2023-03-01T11:11:17.985Z,15.23
2023-03-01T11:13:53.907Z,14.30
2023-03-01T11:16:36.839Z,13.30
2023-03-01T11:19:12.902Z,12.93
2023-03-01T11:21:55.759Z,14.05
2023-03-01T11:24:38.035Z,12.60
2023-03-01T11:27:17.809Z,13.27
2023-03-01T11:29:54.093Z,9.55
2023-03-01T11:32:24.639Z,10.15
2023-03-01T11:35:19.911Z,10.70
2023-03-01T11:38:04.876Z,11.25
2023-03-01T11:41:10.522Z,11.27
2023-03-01T11:44:15.350Z,12.02
2023-03-01T11:47:08.339Z,12.90
2023-03-01T11:49:38.465Z,14.88
2023-03-01T11:52:24.743Z,12.20
2023-03-01T11:55:09.796Z,13.07
2023-03-01T11:58:18.115Z,13.55
2023-03-01T12:00:50.921Z,12.98
2023-03-01T12:03:45.636Z,11.65
2023-03-01T12:06:36.349Z,11.57
2023-03-01T12:09:09.167Z,11.57
2023-03-01T12:12:04.050Z,12.68
2023-03-01T12:14:53.262Z,11.68
2023-03-01T12:17:46.527Z,11.85
2023-03-01T12:20:22.654Z,12.85
2023-03-01T12:23:34.277Z,11.93
2023-03-01T12:26:04.368Z,12.02
2023-03-01T12:29:07.531Z,13.52
2023-03-01T12:31:44.387Z,13.68
2023-03-01T12:34:29.946Z,12.27
2023-03-01T12:37:26.342Z,12.35
2023-03-01T12:40:35.657Z,14.18
2023-03-01T12:43:02.648Z,11.95
2023-03-01T12:46:06.465Z,13.77
2023-03-01T12:49:01.944Z,11.30
2023-03-01T12:51:32.563Z,12.70
2023-03-01T12:54:03.017Z,13.38
2023-03-01T12:56:35.978Z,14.15
2023-03-01T12:59:19.094Z,13.35
2023-03-01T13:01:55.330Z,13.05
2023-03-01T13:04:55.455Z,11.95
2023-03-01T13:07:40.253Z,12.05
2023-03-01T13:10:25.552Z,13.57
2023-03-01T13:13:14.465Z,12.48
2023-03-01T13:15:41.796Z,12.38
2023-03-01T13:18:20.465Z,12.20
2023-03-01T13:21:02.608Z,12.82
2023-03-01T13:23:33.973Z,12.02
2023-03-01T13:26:03.800Z,11.90
2023-03-01T13:28:36.746Z,12.02
2023-03-01T13:31:09.680Z,13.80
2023-03-01T13:33:47.319Z,12.10
2023-03-01T13:36:30.644Z,12.57
2023-03-01T13:38:59.445Z,12.18
2023-03-01T13:41:44.810Z,11.52
2023-03-01T13:44:25.620Z,12.30
2023-03-01T13:46:56.468Z,10.95
2023-03-01T13:49:31.431Z,11.93
2023-03-01T13:52:03.458Z,14.20
2023-03-01T13:54:34.329Z,14.20
2023-03-01T13:57:02.904Z,13.13
2023-03-01T13:59:31.371Z,13.00
2023-03-01T14:02:00.961Z,12.50
2023-03-01T14:04:36.891Z,13.77
2023-03-01T14:07:25.440Z,12.52
2023-03-01T14:09:59.250Z,13.30
2023-03-01T14:12:37.932Z,15.02
2023-03-01T14:15:20.098Z,13.95
2023-03-01T14:17:56.260Z,13.15
2023-03-01T14:20:26.907Z,12.30
2023-03-01T14:22:56.841Z,13.05
2023-03-01T14:25:35.719Z,13.07
2023-03-01T14:28:22.565Z,12.73
2023-03-01T14:30:52.675Z,13.50
2023-03-01T14:33:27.534Z,12.85
2023-03-01T14:36:01.815Z,14.80
2023-03-01T14:38:32.067Z,13.02
2023-03-01T14:41:05.016Z,13.75
2023-03-01T14:43:34.277Z,13.57
2023-03-01T14:46:01.550Z,14.23
2023-03-01T14:48:29.955Z,17.27
2023-03-01T14:50:57.464Z,14.43
2023-03-01T14:53:34.138Z,12.70
2023-03-01T14:56:05.026Z,14.05
2023-03-01T14:58:34.539Z,12.50
2023-03-01T15:01:05.051Z,13.63
2023-03-01T15:03:36.452Z,12.35
2023-03-01T15:06:05.465Z,12.27
2023-03-01T15:08:36.566Z,13.60
2023-03-01T15:11:18.137Z,13.20
2023-03-01T15:13:47.545Z,13.55
2023-03-01T15:16:24.128Z,13.90
2023-03-01T15:18:57.716Z,12.65
2023-03-01T15:21:36.353Z,14.00
2023-03-01T15:24:28.578Z,11.77
2023-03-01T15:27:03.015Z,13.10
2023-03-01T15:29:32.494Z,13.50
2023-03-01T15:32:21.877Z,12.95
2023-03-01T15:34:49.257Z,12.45
2023-03-01T15:37:39.787Z,13.27
2023-03-01T15:40:33.520Z,13.18
2023-03-01T15:43:07.776Z,12.35
2023-03-01T15:45:35.307Z,13.63
2023-03-01T15:48:07.518Z,12.05
2023-03-01T15:50:37.097Z,11.57
2023-03-01T15:53:13.052Z,11.60
2023-03-01T15:55:40.199Z,12.52
2023-03-01T15:58:13.932Z,12.32
2023-03-01T16:00:48.781Z,13.25
2023-03-01T16:03:25.266Z,12.52
2023-03-01T16:05:52.785Z,12.10
2023-03-01T16:08:20.011Z,13.13
2023-03-01T16:10:49.480Z,13.63
2023-03-01T16:13:16.973Z,13.38
2023-03-01T16:15:45.255Z,13.70
2023-03-01T16:18:12.956Z,12.98
2023-03-01T16:20:41.274Z,13.00
2023-03-01T16:23:09.918Z,12.73
2023-03-01T16:25:37.565Z,12.95
2023-03-01T16:28:10.408Z,15.40
2023-03-01T16:30:39.245Z,12.55
2023-03-01T16:33:23.994Z,14.32
2023-03-01T16:35:53.511Z,14.25
2023-03-01T16:38:20.849Z,16.83
2023-03-01T16:40:53.162Z,16.05
2023-03-01T16:43:20.378Z,15.85
2023-03-01T16:45:47.805Z,16.83
2023-03-01T16:48:15.692Z,16.20
2023-03-01T16:50:43.303Z,15.85
2023-03-01T16:53:10.895Z,17.60
2023-03-01T16:55:39.025Z,16.58
2023-03-01T16:58:14.504Z,16.23
2023-03-01T17:00:41.675Z,16.88
2023-03-01T17:03:10.397Z,17.88
2023-03-01T17:05:41.608Z,17.77
2023-03-01T17:08:08.937Z,18.75
2023-03-01T17:10:36.164Z,19.45
2023-03-01T17:13:03.323Z,18.15
2023-03-01T17:15:31.014Z,18.92
2023-03-01T17:17:58.253Z,18.20
2023-03-01T17:20:25.847Z,19.20
2023-03-01T17:22:53.772Z,20.02
2023-03-01T17:25:21.505Z,18.00
2023-03-01T17:27:50.492Z,18.92
2023-03-01T17:30:18.350Z,19.70
2023-03-01T17:32:45.780Z,19.50
2023-03-01T17:35:15.775Z,22.13
2023-03-01T17:37:46.683Z,22.45
2023-03-01T17:40:14.663Z,21.58
2023-03-01T17:42:42.071Z,21.77
2023-03-01T17:45:10.667Z,22.27
2023-03-01T17:47:38.221Z,20.77
2023-03-01T17:50:08.067Z,19.23
2023-03-01T17:52:35.127Z,18.00
2023-03-01T17:55:02.751Z,17.73
2023-03-01T17:57:30.044Z,18.55
2023-03-01T17:59:57.842Z,18.92
2023-03-01T18:02:26.827Z,20.40
2023-03-01T18:04:57.366Z,19.65
2023-03-01T18:07:28.517Z,19.73
2023-03-01T18:09:57.236Z,18.55
2023-03-01T18:12:25.137Z,19.65
2023-03-01T18:14:55.985Z,19.27
2023-03-01T18:17:27.156Z,18.20
2023-03-01T18:19:57.157Z,18.60
2023-03-01T18:22:25.120Z,17.45
2023-03-01T18:25:02.650Z,20.02
2023-03-01T18:27:31.729Z,19.08
2023-03-01T18:29:59.791Z,18.27
2023-03-01T18:32:28.245Z,17.00
2023-03-01T18:34:56.230Z,17.85
2023-03-01T18:37:23.755Z,18.05
2023-03-01T18:39:55.062Z,17.05
2023-03-01T18:42:24.137Z,17.42
2023-03-01T18:44:52.087Z,17.27
2023-03-01T18:47:20.116Z,16.92
2023-03-01T18:49:48.113Z,17.77
2023-03-01T18:52:17.337Z,15.88
2023-03-01T18:54:44.987Z,16.77
2023-03-01T18:57:12.886Z,15.25
2023-03-01T18:59:41.611Z,18.58
2023-03-01T19:02:11.701Z,13.70
2023-03-01T19:04:43.181Z,14.70
2023-03-01T19:07:10.934Z,14.73
2023-03-01T19:09:39.940Z,14.45
2023-03-01T19:12:08.006Z,19.45
2023-03-01T19:14:36.063Z,20.95
2023-03-01T19:17:06.236Z,16.67
2023-03-01T19:19:34.188Z,13.25
2023-03-01T19:22:08.583Z,13.70
2023-03-01T19:24:36.730Z,14.65
2023-03-01T19:27:04.660Z,13.27
2023-03-01T19:29:33.986Z,12.90
2023-03-01T19:32:03.295Z,11.82
2023-03-01T19:34:31.286Z,14.05
2023-03-01T19:36:59.224Z,13.57
2023-03-01T19:39:28.103Z,13.60
2023-03-01T19:41:57.761Z,13.40
2023-03-01T19:44:25.345Z,13.48
2023-03-01T19:46:54.595Z,14.30
2023-03-01T19:49:22.613Z,13.27
2023-03-01T19:51:50.619Z,16.15
2023-03-01T19:54:22.402Z,14.00
2023-03-01T19:56:51.625Z,14.82
2023-03-01T19:59:24.921Z,15.68
2023-03-01T20:01:53.415Z,13.90
2023-03-01T20:04:21.518Z,14.48
2023-03-01T20:06:50.579Z,14.80
2023-03-01T20:09:21.782Z,14.93
2023-03-01T20:11:50.792Z,16.48
2023-03-01T20:14:21.121Z,13.80
2023-03-01T20:16:51.525Z,15.85
2023-03-01T20:19:19.716Z,15.40
2023-03-01T20:21:50.980Z,16.17
2023-03-01T20:24:19.070Z,16.10
2023-03-01T20:26:48.857Z,15.48
2023-03-01T20:29:16.871Z,15.90
2023-03-01T20:31:45.128Z,14.50
2023-03-01T20:34:13.107Z,14.15
2023-03-01T20:36:42.275Z,14.23
2023-03-01T20:39:12.181Z,14.95
2023-03-01T20:41:41.128Z,13.85
2023-03-01T20:44:09.933Z,14.63
2023-03-01T20:46:38.273Z,15.65
2023-03-01T20:49:07.738Z,15.52
2023-03-01T20:51:35.419Z,15.65
2023-03-01T20:54:03.411Z,14.55
2023-03-01T20:56:31.553Z,15.60
2023-03-01T20:58:59.382Z,14.80
2023-03-01T21:01:27.607Z,15.23
2023-03-01T21:03:56.246Z,16.35
2023-03-01T21:06:23.796Z,14.43
2023-03-01T21:08:51.952Z,15.55
2023-03-01T21:11:20.008Z,15.70
2023-03-01T21:13:47.409Z,15.10
2023-03-01T21:16:14.810Z,15.90
2023-03-01T21:18:43.185Z,14.32
2023-03-01T21:21:13.997Z,15.65
2023-03-01T21:23:42.825Z,14.57
2023-03-01T21:26:22.058Z,17.55
2023-03-01T21:28:51.265Z,14.57
2023-03-01T21:31:22.247Z,16.08
2023-03-01T21:33:54.987Z,15.50
2023-03-01T21:36:24.242Z,15.85
2023-03-01T21:38:52.880Z,16.65
2023-03-01T21:41:25.087Z,16.42
2023-03-01T21:43:53.846Z,17.92
2023-03-01T21:46:23.842Z,16.95
2023-03-01T21:48:52.847Z,16.70
2023-03-01T21:51:21.990Z,17.95
2023-03-01T21:53:50.655Z,15.55
2023-03-01T21:56:19.999Z,18.17
2023-03-01T21:58:47.151Z,18.25
2023-03-01T22:01:17.040Z,20.13
2023-03-01T22:03:45.945Z,19.60
2023-03-01T22:06:19.769Z,18.35
2023-03-01T22:08:49.006Z,19.30
2023-03-01T22:11:20.083Z,17.65
2023-03-01T22:13:51.824Z,18.90
2023-03-01T22:16:27.916Z,20.30
2023-03-01T22:18:55.963Z,20.08
2023-03-01T22:21:24.812Z,19.75
2023-03-01T22:23:53.869Z,18.10
2023-03-01T22:26:39.709Z,18.38
2023-03-01T22:29:12.673Z,20.98
2023-03-01T22:31:40.809Z,18.58
2023-03-01T22:34:09.299Z,19.10
2023-03-01T22:36:36.667Z,17.30
2023-03-01T22:39:04.453Z,19.48
2023-03-01T22:41:45.113Z,20.67
2023-03-01T22:44:22.998Z,20.70
2023-03-01T22:46:50.441Z,20.55
2023-03-01T22:49:18.300Z,20.45
2023-03-01T22:51:47.730Z,20.42
2023-03-01T22:54:15.813Z,21.52
2023-03-01T22:56:43.316Z,21.73
2023-03-01T22:59:13.626Z,23.45
2023-03-01T23:01:42.476Z,22.23
2023-03-01T23:04:09.626Z,21.20
2023-03-01T23:06:50.359Z,20.45
2023-03-01T23:09:32.858Z,22.77
2023-03-01T23:12:01.821Z,22.83
2023-03-01T23:14:32.393Z,22.60
2023-03-01T23:17:03.508Z,23.83
2023-03-01T23:19:31.026Z,22.58
2023-03-01T23:21:58.313Z,24.02
2023-03-01T23:24:31.635Z,25.02
2023-03-01T23:27:01.504Z,23.05
2023-03-01T23:29:28.945Z,23.25
2023-03-01T23:31:57.877Z,22.40
2023-03-01T23:34:26.102Z,24.30
2023-03-01T23:36:54.768Z,23.92
2023-03-01T23:39:22.472Z,23.80
2023-03-01T23:41:49.513Z,23.83
2023-03-01T23:44:19.112Z,25.30
2023-03-01T23:46:47.611Z,25.15
2023-03-01T23:49:17.915Z,25.40
2023-03-01T23:51:47.841Z,24.92
2023-03-01T23:54:17.870Z,24.85
2023-03-01T23:56:45.978Z,25.10
2023-03-01T23:59:19.536Z,24.15
